sensor_id;sensor_type;location;lat;lon;timestamp;P1;durP1;ratioP1;P2;durP2;ratioP2
11427;SDS011;5770;44.504;11.346;2023-03-25T00:00:32;2.40;;;2.20;;
11427;SDS011;5770;44.504;11.346;2023-03-25T00:03:04;2.75;;;1.70;;
11427;SDS011;5770;44.504;11.346;2023-03-25T00:05:33;2.47;;;1.92;;
11427;SDS011;5770;44.504;11.346;2023-03-25T00:08:02;2.20;;;1.63;;
11427;SDS011;5770;44.504;11.346;2023-03-25T00:10:29;2.47;;;1.80;;
11427;SDS011;5770;44.504;11.346;2023-03-25T00:12:56;2.38;;;1.80;;
11427;SDS011;5770;44.504;11.346;2023-03-25T00:15:28;1.80;;;1.70;;
11427;SDS011;5770;44.504;11.346;2023-03-25T00:17:57;3.58;;;1.65;;
11427;SDS011;5770;44.504;11.346;2023-03-25T00:20:24;4.07;;;1.85;;
11427;SDS011;5770;44.504;11.346;2023-03-25T00:22:52;2.63;;;2.00;;
11427;SDS011;5770;44.504;11.346;2023-03-25T00:25:21;2.60;;;1.65;;
11427;SDS011;5770;44.504;11.346;2023-03-25T00:27:48;2.47;;;1.95;;
11427;SDS011;5770;44.504;11.346;2023-03-25T00:30:16;7.03;;;1.88;;
11427;SDS011;5770;44.504;11.346;2023-03-25T00:32:45;3.47;;;1.77;;
11427;SDS011;5770;44.504;11.346;2023-03-25T00:35:13;3.33;;;1.77;;
11427;SDS011;5770;44.504;11.346;2023-03-25T00:37:41;5.25;;;2.15;;
11427;SDS011;5770;44.504;11.346;2023-03-25T00:40:10;3.22;;;2.05;;
11427;SDS011;5770;44.504;11.346;2023-03-25T00:42:38;3.10;;;2.00;;
11427;SDS011;5770;44.504;11.346;2023-03-25T00:45:09;3.35;;;2.03;;
11427;SDS011;5770;44.504;11.346;2023-03-25T00:47:36;6.63;;;2.15;;
11427;SDS011;5770;44.504;11.346;2023-03-25T00:50:04;3.65;;;2.00;;
11427;SDS011;5770;44.504;11.346;2023-03-25T00:52:32;2.33;;;1.67;;
11427;SDS011;5770;44.504;11.346;2023-03-25T00:54:59;2.88;;;2.15;;
11427;SDS011;5770;44.504;11.346;2023-03-25T00:57:26;4.82;;;1.95;;
11427;SDS011;5770;44.504;11.346;2023-03-25T00:59:55;4.32;;;1.77;;
11427;SDS011;5770;44.504;11.346;2023-03-25T01:02:22;3.47;;;1.80;;
11427;SDS011;5770;44.504;11.346;2023-03-25T01:04:50;3.28;;;2.20;;
11427;SDS011;5770;44.504;11.346;2023-03-25T01:07:17;2.58;;;2.03;;
11427;SDS011;5770;44.504;11.346;2023-03-25T01:09:44;3.22;;;2.40;;
11427;SDS011;5770;44.504;11.346;2023-03-25T01:12:12;5.80;;;2.00;;
11427;SDS011;5770;44.504;11.346;2023-03-25T01:14:40;3.50;;;1.98;;
11427;SDS011;5770;44.504;11.346;2023-03-25T01:17:08;3.30;;;2.20;;
11427;SDS011;5770;44.504;11.346;2023-03-25T01:19:36;3.65;;;2.08;;
11427;SDS011;5770;44.504;11.346;2023-03-25T01:22:03;2.55;;;1.92;;
11427;SDS011;5770;44.504;11.346;2023-03-25T01:24:30;2.50;;;1.75;;
11427;SDS011;5770;44.504;11.346;2023-03-25T01:26:58;1.90;;;1.80;;
11427;SDS011;5770;44.504;11.346;2023-03-25T01:29:25;2.25;;;2.05;;
11427;SDS011;5770;44.504;11.346;2023-03-25T01:31:52;2.90;;;1.90;;
11427;SDS011;5770;44.504;11.346;2023-03-25T01:34:21;2.97;;;1.77;;
11427;SDS011;5770;44.504;11.346;2023-03-25T01:36:48;2.10;;;1.67;;
11427;SDS011;5770;44.504;11.346;2023-03-25T01:39:16;1.73;;;1.63;;
11427;SDS011;5770;44.504;11.346;2023-03-25T01:41:45;4.97;;;1.98;;
11427;SDS011;5770;44.504;11.346;2023-03-25T01:46:57;4.60;;;2.88;;
11427;SDS011;5770;44.504;11.346;2023-03-25T01:49:29;5.05;;;2.60;;
11427;SDS011;5770;44.504;11.346;2023-03-25T01:52:03;1.98;;;1.80;;
11427;SDS011;5770;44.504;11.346;2023-03-25T01:54:32;1.83;;;1.65;;
11427;SDS011;5770;44.504;11.346;2023-03-25T01:57:02;3.35;;;1.83;;
11427;SDS011;5770;44.504;11.346;2023-03-25T01:59:30;2.40;;;2.13;;
11427;SDS011;5770;44.504;11.346;2023-03-25T02:01:59;3.42;;;1.92;;
11427;SDS011;5770;44.504;11.346;2023-03-25T02:04:30;2.17;;;1.80;;
11427;SDS011;5770;44.504;11.346;2023-03-25T02:07:03;2.40;;;1.88;;
11427;SDS011;5770;44.504;11.346;2023-03-25T02:09:33;2.88;;;2.30;;
11427;SDS011;5770;44.504;11.346;2023-03-25T02:12:00;2.42;;;1.85;;
11427;SDS011;5770;44.504;11.346;2023-03-25T02:14:28;4.47;;;2.10;;
11427;SDS011;5770;44.504;11.346;2023-03-25T02:17:00;5.95;;;2.28;;
11427;SDS011;5770;44.504;11.346;2023-03-25T02:22:38;3.05;;;2.20;;
11427;SDS011;5770;44.504;11.346;2023-03-25T02:25:31;3.53;;;2.00;;
11427;SDS011;5770;44.504;11.346;2023-03-25T02:28:06;2.15;;;1.95;;
11427;SDS011;5770;44.504;11.346;2023-03-25T02:30:51;2.30;;;1.90;;
11427;SDS011;5770;44.504;11.346;2023-03-25T02:33:40;3.97;;;2.13;;
11427;SDS011;5770;44.504;11.346;2023-03-25T02:38:56;2.70;;;2.08;;
11427;SDS011;5770;44.504;11.346;2023-03-25T02:41:28;3.13;;;2.35;;
11427;SDS011;5770;44.504;11.346;2023-03-25T02:44:02;3.47;;;2.20;;
11427;SDS011;5770;44.504;11.346;2023-03-25T02:46:32;2.33;;;2.13;;
11427;SDS011;5770;44.504;11.346;2023-03-25T02:49:04;3.00;;;2.13;;
11427;SDS011;5770;44.504;11.346;2023-03-25T02:51:34;2.40;;;2.20;;
11427;SDS011;5770;44.504;11.346;2023-03-25T02:54:08;5.18;;;2.28;;
11427;SDS011;5770;44.504;11.346;2023-03-25T02:56:39;5.32;;;2.50;;
11427;SDS011;5770;44.504;11.346;2023-03-25T02:59:08;3.80;;;2.30;;
11427;SDS011;5770;44.504;11.346;2023-03-25T03:01:38;4.07;;;2.30;;
11427;SDS011;5770;44.504;11.346;2023-03-25T03:04:06;3.15;;;2.20;;
11427;SDS011;5770;44.504;11.346;2023-03-25T03:06:34;4.63;;;2.22;;
11427;SDS011;5770;44.504;11.346;2023-03-25T03:09:09;2.60;;;1.90;;
11427;SDS011;5770;44.504;11.346;2023-03-25T03:11:43;2.40;;;2.20;;
11427;SDS011;5770;44.504;11.346;2023-03-25T03:14:24;3.03;;;2.20;;
11427;SDS011;5770;44.504;11.346;2023-03-25T03:16:57;2.17;;;1.95;;
11427;SDS011;5770;44.504;11.346;2023-03-25T03:19:30;3.58;;;2.00;;
11427;SDS011;5770;44.504;11.346;2023-03-25T03:22:02;5.03;;;2.33;;
11427;SDS011;5770;44.504;11.346;2023-03-25T03:24:40;3.83;;;1.90;;
11427;SDS011;5770;44.504;11.346;2023-03-25T03:27:10;3.30;;;1.90;;
11427;SDS011;5770;44.504;11.346;2023-03-25T03:29:41;4.68;;;2.17;;
11427;SDS011;5770;44.504;11.346;2023-03-25T03:32:10;4.57;;;2.20;;
11427;SDS011;5770;44.504;11.346;2023-03-25T03:34:45;1.80;;;1.65;;
11427;SDS011;5770;44.504;11.346;2023-03-25T03:37:14;4.28;;;3.38;;
11427;SDS011;5770;44.504;11.346;2023-03-25T03:39:44;2.78;;;2.38;;
11427;SDS011;5770;44.504;11.346;2023-03-25T03:42:14;5.00;;;2.63;;
11427;SDS011;5770;44.504;11.346;2023-03-25T03:44:45;3.85;;;2.20;;
11427;SDS011;5770;44.504;11.346;2023-03-25T03:47:17;2.33;;;2.10;;
11427;SDS011;5770;44.504;11.346;2023-03-25T03:49:49;2.28;;;2.08;;
11427;SDS011;5770;44.504;11.346;2023-03-25T03:52:19;2.75;;;1.95;;
11427;SDS011;5770;44.504;11.346;2023-03-25T03:54:52;3.53;;;2.05;;
11427;SDS011;5770;44.504;11.346;2023-03-25T03:57:22;2.10;;;1.90;;
11427;SDS011;5770;44.504;11.346;2023-03-25T03:59:55;2.30;;;1.80;;
11427;SDS011;5770;44.504;11.346;2023-03-25T04:02:29;2.42;;;1.88;;
11427;SDS011;5770;44.504;11.346;2023-03-25T04:05:00;4.75;;;2.05;;
11427;SDS011;5770;44.504;11.346;2023-03-25T04:07:29;2.88;;;1.80;;
11427;SDS011;5770;44.504;11.346;2023-03-25T04:10:06;2.35;;;1.92;;
11427;SDS011;5770;44.504;11.346;2023-03-25T04:12:39;3.75;;;1.92;;
11427;SDS011;5770;44.504;11.346;2023-03-25T04:15:07;3.03;;;1.95;;
11427;SDS011;5770;44.504;11.346;2023-03-25T04:17:35;4.13;;;2.05;;
11427;SDS011;5770;44.504;11.346;2023-03-25T04:20:02;2.97;;;1.98;;
11427;SDS011;5770;44.504;11.346;2023-03-25T04:22:35;4.15;;;2.05;;
11427;SDS011;5770;44.504;11.346;2023-03-25T04:25:03;3.63;;;1.92;;
11427;SDS011;5770;44.504;11.346;2023-03-25T04:27:31;3.65;;;1.92;;
11427;SDS011;5770;44.504;11.346;2023-03-25T04:30:02;3.35;;;2.00;;
11427;SDS011;5770;44.504;11.346;2023-03-25T04:32:30;3.75;;;1.80;;
11427;SDS011;5770;44.504;11.346;2023-03-25T04:34:57;3.40;;;1.80;;
11427;SDS011;5770;44.504;11.346;2023-03-25T04:37:25;4.05;;;1.85;;
11427;SDS011;5770;44.504;11.346;2023-03-25T04:39:52;3.38;;;1.65;;
11427;SDS011;5770;44.504;11.346;2023-03-25T04:42:20;2.25;;;2.05;;
11427;SDS011;5770;44.504;11.346;2023-03-25T04:44:51;2.60;;;2.25;;
11427;SDS011;5770;44.504;11.346;2023-03-25T04:47:18;2.45;;;2.20;;
11427;SDS011;5770;44.504;11.346;2023-03-25T04:49:48;4.07;;;2.80;;
11427;SDS011;5770;44.504;11.346;2023-03-25T04:52:15;4.65;;;2.63;;
11427;SDS011;5770;44.504;11.346;2023-03-25T04:54:43;5.22;;;3.05;;
11427;SDS011;5770;44.504;11.346;2023-03-25T04:57:10;3.55;;;2.30;;
11427;SDS011;5770;44.504;11.346;2023-03-25T04:59:37;3.47;;;2.50;;
11427;SDS011;5770;44.504;11.346;2023-03-25T05:02:06;5.13;;;2.65;;
11427;SDS011;5770;44.504;11.346;2023-03-25T05:04:37;3.13;;;2.83;;
11427;SDS011;5770;44.504;11.346;2023-03-25T05:07:06;3.55;;;2.60;;
11427;SDS011;5770;44.504;11.346;2023-03-25T05:09:33;7.13;;;2.63;;
11427;SDS011;5770;44.504;11.346;2023-03-25T05:12:01;4.00;;;2.70;;
11427;SDS011;5770;44.504;11.346;2023-03-25T05:14:28;3.05;;;2.70;;
11427;SDS011;5770;44.504;11.346;2023-03-25T05:16:56;3.47;;;2.90;;
11427;SDS011;5770;44.504;11.346;2023-03-25T05:19:25;5.80;;;3.17;;
11427;SDS011;5770;44.504;11.346;2023-03-25T05:21:53;4.47;;;3.35;;
11427;SDS011;5770;44.504;11.346;2023-03-25T05:24:21;4.72;;;3.03;;
11427;SDS011;5770;44.504;11.346;2023-03-25T05:26:48;4.75;;;2.85;;
11427;SDS011;5770;44.504;11.346;2023-03-25T05:29:15;5.13;;;2.90;;
11427;SDS011;5770;44.504;11.346;2023-03-25T05:31:44;8.95;;;3.00;;
11427;SDS011;5770;44.504;11.346;2023-03-25T05:34:12;4.22;;;2.65;;
11427;SDS011;5770;44.504;11.346;2023-03-25T05:36:45;5.43;;;3.10;;
11427;SDS011;5770;44.504;11.346;2023-03-25T05:39:12;3.33;;;2.80;;
11427;SDS011;5770;44.504;11.346;2023-03-25T05:41:40;6.15;;;3.15;;
11427;SDS011;5770;44.504;11.346;2023-03-25T05:44:09;3.88;;;2.85;;
11427;SDS011;5770;44.504;11.346;2023-03-25T05:46:38;4.32;;;3.20;;
11427;SDS011;5770;44.504;11.346;2023-03-25T05:49:05;14.02;;;4.50;;
11427;SDS011;5770;44.504;11.346;2023-03-25T05:51:33;8.52;;;3.38;;
11427;SDS011;5770;44.504;11.346;2023-03-25T05:54:03;6.72;;;3.47;;
11427;SDS011;5770;44.504;11.346;2023-03-25T05:56:34;4.78;;;3.00;;
11427;SDS011;5770;44.504;11.346;2023-03-25T05:59:02;5.70;;;3.40;;
11427;SDS011;5770;44.504;11.346;2023-03-25T06:01:29;6.63;;;3.03;;
11427;SDS011;5770;44.504;11.346;2023-03-25T06:03:57;4.47;;;3.42;;
11427;SDS011;5770;44.504;11.346;2023-03-25T06:06:25;4.88;;;2.75;;
11427;SDS011;5770;44.504;11.346;2023-03-25T06:08:53;7.82;;;3.10;;
11427;SDS011;5770;44.504;11.346;2023-03-25T06:11:22;12.32;;;3.00;;
11427;SDS011;5770;44.504;11.346;2023-03-25T06:13:49;4.63;;;3.00;;
11427;SDS011;5770;44.504;11.346;2023-03-25T06:16:17;4.13;;;3.05;;
11427;SDS011;5770;44.504;11.346;2023-03-25T06:18:46;9.60;;;3.13;;
11427;SDS011;5770;44.504;11.346;2023-03-25T06:21:20;4.97;;;2.83;;
11427;SDS011;5770;44.504;11.346;2023-03-25T06:23:47;6.10;;;3.00;;
11427;SDS011;5770;44.504;11.346;2023-03-25T06:26:15;7.95;;;3.05;;
11427;SDS011;5770;44.504;11.346;2023-03-25T06:28:44;5.07;;;2.97;;
11427;SDS011;5770;44.504;11.346;2023-03-25T06:31:11;7.30;;;3.20;;
11427;SDS011;5770;44.504;11.346;2023-03-25T06:33:40;5.78;;;2.97;;
11427;SDS011;5770;44.504;11.346;2023-03-25T06:36:09;4.13;;;3.08;;
11427;SDS011;5770;44.504;11.346;2023-03-25T06:38:36;3.08;;;2.50;;
11427;SDS011;5770;44.504;11.346;2023-03-25T06:41:03;5.35;;;3.55;;
11427;SDS011;5770;44.504;11.346;2023-03-25T06:43:31;4.25;;;3.08;;
11427;SDS011;5770;44.504;11.346;2023-03-25T06:46:00;5.97;;;2.50;;
11427;SDS011;5770;44.504;11.346;2023-03-25T06:48:27;3.90;;;2.92;;
11427;SDS011;5770;44.504;11.346;2023-03-25T06:50:54;6.93;;;2.85;;
11427;SDS011;5770;44.504;11.346;2023-03-25T06:53:22;5.35;;;3.03;;
11427;SDS011;5770;44.504;11.346;2023-03-25T06:55:49;2.97;;;2.22;;
11427;SDS011;5770;44.504;11.346;2023-03-25T06:58:16;4.57;;;2.35;;
11427;SDS011;5770;44.504;11.346;2023-03-25T07:00:43;6.03;;;2.80;;
11427;SDS011;5770;44.504;11.346;2023-03-25T07:03:12;4.88;;;2.20;;
11427;SDS011;5770;44.504;11.346;2023-03-25T07:05:40;2.40;;;2.20;;
11427;SDS011;5770;44.504;11.346;2023-03-25T07:08:07;6.00;;;2.80;;
11427;SDS011;5770;44.504;11.346;2023-03-25T07:10:34;3.65;;;2.33;;
11427;SDS011;5770;44.504;11.346;2023-03-25T07:13:01;4.20;;;2.42;;
11427;SDS011;5770;44.504;11.346;2023-03-25T07:15:28;5.00;;;2.70;;
11427;SDS011;5770;44.504;11.346;2023-03-25T07:17:56;7.15;;;2.67;;
11427;SDS011;5770;44.504;11.346;2023-03-25T07:20:24;5.65;;;2.35;;
11427;SDS011;5770;44.504;11.346;2023-03-25T07:22:52;3.35;;;2.53;;
11427;SDS011;5770;44.504;11.346;2023-03-25T07:25:20;4.70;;;2.80;;
11427;SDS011;5770;44.504;11.346;2023-03-25T07:27:47;4.32;;;2.60;;
11427;SDS011;5770;44.504;11.346;2023-03-25T07:30:15;5.03;;;2.75;;
11427;SDS011;5770;44.504;11.346;2023-03-25T07:32:44;2.90;;;2.15;;
11427;SDS011;5770;44.504;11.346;2023-03-25T07:35:11;2.95;;;2.60;;
11427;SDS011;5770;44.504;11.346;2023-03-25T07:37:40;5.63;;;2.90;;
11427;SDS011;5770;44.504;11.346;2023-03-25T07:40:07;3.40;;;2.75;;
11427;SDS011;5770;44.504;11.346;2023-03-25T07:42:35;4.10;;;2.78;;
11427;SDS011;5770;44.504;11.346;2023-03-25T07:45:04;6.15;;;2.58;;
11427;SDS011;5770;44.504;11.346;2023-03-25T07:47:32;5.45;;;2.60;;
11427;SDS011;5770;44.504;11.346;2023-03-25T07:49:59;4.47;;;2.42;;
11427;SDS011;5770;44.504;11.346;2023-03-25T07:52:26;3.03;;;2.53;;
11427;SDS011;5770;44.504;11.346;2023-03-25T07:54:55;3.15;;;2.55;;
11427;SDS011;5770;44.504;11.346;2023-03-25T07:57:24;4.00;;;2.60;;
11427;SDS011;5770;44.504;11.346;2023-03-25T07:59:51;2.55;;;2.17;;
11427;SDS011;5770;44.504;11.346;2023-03-25T08:02:18;4.22;;;2.58;;
11427;SDS011;5770;44.504;11.346;2023-03-25T08:04:45;7.60;;;2.65;;
11427;SDS011;5770;44.504;11.346;2023-03-25T08:07:13;3.22;;;2.10;;
11427;SDS011;5770;44.504;11.346;2023-03-25T08:09:40;4.32;;;2.38;;
11427;SDS011;5770;44.504;11.346;2023-03-25T08:12:09;2.70;;;2.50;;
11427;SDS011;5770;44.504;11.346;2023-03-25T08:14:36;3.50;;;2.05;;
11427;SDS011;5770;44.504;11.346;2023-03-25T08:17:03;4.88;;;2.30;;
11427;SDS011;5770;44.504;11.346;2023-03-25T08:19:31;2.55;;;2.17;;
11427;SDS011;5770;44.504;11.346;2023-03-25T08:21:58;5.85;;;2.90;;
11427;SDS011;5770;44.504;11.346;2023-03-25T08:24:25;20.95;;;3.70;;
11427;SDS011;5770;44.504;11.346;2023-03-25T08:26:54;8.23;;;3.17;;
11427;SDS011;5770;44.504;11.346;2023-03-25T08:29:22;5.72;;;2.63;;
11427;SDS011;5770;44.504;11.346;2023-03-25T08:31:51;5.60;;;3.20;;
11427;SDS011;5770;44.504;11.346;2023-03-25T08:34:19;5.05;;;3.22;;
11427;SDS011;5770;44.504;11.346;2023-03-25T08:36:49;3.63;;;2.92;;
11427;SDS011;5770;44.504;11.346;2023-03-25T08:39:16;4.32;;;2.80;;
11427;SDS011;5770;44.504;11.346;2023-03-25T08:41:46;5.07;;;2.80;;
11427;SDS011;5770;44.504;11.346;2023-03-25T08:44:13;3.10;;;2.42;;
11427;SDS011;5770;44.504;11.346;2023-03-25T08:46:41;5.75;;;3.20;;
11427;SDS011;5770;44.504;11.346;2023-03-25T08:49:09;3.30;;;2.90;;
11427;SDS011;5770;44.504;11.346;2023-03-25T08:51:36;6.35;;;2.95;;
11427;SDS011;5770;44.504;11.346;2023-03-25T08:54:03;8.90;;;2.90;;
11427;SDS011;5770;44.504;11.346;2023-03-25T08:56:30;4.32;;;2.88;;
11427;SDS011;5770;44.504;11.346;2023-03-25T08:58:57;6.85;;;3.05;;
11427;SDS011;5770;44.504;11.346;2023-03-25T09:01:24;4.38;;;2.80;;
11427;SDS011;5770;44.504;11.346;2023-03-25T09:03:53;4.07;;;2.72;;
11427;SDS011;5770;44.504;11.346;2023-03-25T09:06:21;5.75;;;2.60;;
11427;SDS011;5770;44.504;11.346;2023-03-25T09:08:49;5.72;;;2.50;;
11427;SDS011;5770;44.504;11.346;2023-03-25T09:11:16;4.53;;;2.22;;
11427;SDS011;5770;44.504;11.346;2023-03-25T09:13:43;4.85;;;2.60;;
11427;SDS011;5770;44.504;11.346;2023-03-25T09:16:10;5.13;;;2.50;;
11427;SDS011;5770;44.504;11.346;2023-03-25T09:18:38;3.10;;;2.20;;
11427;SDS011;5770;44.504;11.346;2023-03-25T09:21:06;2.97;;;2.20;;
11427;SDS011;5770;44.504;11.346;2023-03-25T09:23:33;3.63;;;1.92;;
11427;SDS011;5770;44.504;11.346;2023-03-25T09:26:01;4.53;;;2.22;;
11427;SDS011;5770;44.504;11.346;2023-03-25T09:28:29;4.47;;;2.22;;
11427;SDS011;5770;44.504;11.346;2023-03-25T09:30:57;3.60;;;1.95;;
11427;SDS011;5770;44.504;11.346;2023-03-25T09:33:24;4.78;;;2.58;;
11427;SDS011;5770;44.504;11.346;2023-03-25T09:35:52;3.00;;;2.17;;
11427;SDS011;5770;44.504;11.346;2023-03-25T09:38:21;3.30;;;2.05;;
11427;SDS011;5770;44.504;11.346;2023-03-25T09:40:48;3.22;;;2.38;;
11427;SDS011;5770;44.504;11.346;2023-03-25T09:43:28;5.93;;;2.88;;
11427;SDS011;5770;44.504;11.346;2023-03-25T09:46:05;7.88;;;2.53;;
11427;SDS011;5770;44.504;11.346;2023-03-25T09:48:34;4.22;;;2.30;;
11427;SDS011;5770;44.504;11.346;2023-03-25T09:51:04;4.30;;;2.63;;
11427;SDS011;5770;44.504;11.346;2023-03-25T09:53:36;5.13;;;2.78;;
11427;SDS011;5770;44.504;11.346;2023-03-25T09:56:04;4.38;;;2.10;;
11427;SDS011;5770;44.504;11.346;2023-03-25T09:58:37;3.72;;;2.55;;
11427;SDS011;5770;44.504;11.346;2023-03-25T10:01:25;5.10;;;3.00;;
11427;SDS011;5770;44.504;11.346;2023-03-25T10:04:10;3.65;;;2.17;;
11427;SDS011;5770;44.504;11.346;2023-03-25T10:06:41;3.55;;;2.05;;
11427;SDS011;5770;44.504;11.346;2023-03-25T10:09:22;3.70;;;1.92;;
11427;SDS011;5770;44.504;11.346;2023-03-25T10:12:02;2.15;;;1.88;;
11427;SDS011;5770;44.504;11.346;2023-03-25T10:14:32;3.00;;;2.10;;
11427;SDS011;5770;44.504;11.346;2023-03-25T10:17:10;4.78;;;1.90;;
11427;SDS011;5770;44.504;11.346;2023-03-25T10:19:45;2.67;;;1.77;;
11427;SDS011;5770;44.504;11.346;2023-03-25T10:22:20;4.05;;;1.60;;
11427;SDS011;5770;44.504;11.346;2023-03-25T10:24:54;3.80;;;2.30;;
11427;SDS011;5770;44.504;11.346;2023-03-25T10:27:25;3.55;;;2.53;;
11427;SDS011;5770;44.504;11.346;2023-03-25T10:29:53;4.63;;;2.03;;
11427;SDS011;5770;44.504;11.346;2023-03-25T10:32:25;2.80;;;1.70;;
11427;SDS011;5770;44.504;11.346;2023-03-25T10:34:54;5.28;;;1.77;;
11427;SDS011;5770;44.504;11.346;2023-03-25T10:37:24;4.13;;;1.67;;
11427;SDS011;5770;44.504;11.346;2023-03-25T10:39:54;3.28;;;1.88;;
11427;SDS011;5770;44.504;11.346;2023-03-25T10:42:25;8.20;;;1.70;;
11427;SDS011;5770;44.504;11.346;2023-03-25T10:44:56;3.10;;;1.55;;
11427;SDS011;5770;44.504;11.346;2023-03-25T10:47:24;9.55;;;2.10;;
11427;SDS011;5770;44.504;11.346;2023-03-25T10:49:54;3.53;;;1.67;;
11427;SDS011;5770;44.504;11.346;2023-03-25T10:52:23;2.17;;;1.52;;
11427;SDS011;5770;44.504;11.346;2023-03-25T10:54:51;4.70;;;1.50;;
11427;SDS011;5770;44.504;11.346;2023-03-25T10:57:22;2.63;;;1.50;;
11427;SDS011;5770;44.504;11.346;2023-03-25T10:59:55;3.20;;;1.33;;
11427;SDS011;5770;44.504;11.346;2023-03-25T11:02:24;1.90;;;1.20;;
11427;SDS011;5770;44.504;11.346;2023-03-25T11:04:54;8.02;;;1.95;;
11427;SDS011;5770;44.504;11.346;2023-03-25T11:07:26;5.38;;;1.70;;
11427;SDS011;5770;44.504;11.346;2023-03-25T11:10:06;3.80;;;1.52;;
11427;SDS011;5770;44.504;11.346;2023-03-25T11:12:35;2.13;;;1.52;;
11427;SDS011;5770;44.504;11.346;2023-03-25T11:15:04;1.88;;;1.40;;
11427;SDS011;5770;44.504;11.346;2023-03-25T11:17:31;6.85;;;2.00;;
11427;SDS011;5770;44.504;11.346;2023-03-25T11:20:00;7.72;;;2.92;;
11427;SDS011;5770;44.504;11.346;2023-03-25T11:22:34;6.72;;;1.85;;
11427;SDS011;5770;44.504;11.346;2023-03-25T11:25:03;4.20;;;1.48;;
11427;SDS011;5770;44.504;11.346;2023-03-25T11:27:37;7.07;;;1.88;;
11427;SDS011;5770;44.504;11.346;2023-03-25T11:30:13;4.22;;;1.80;;
11427;SDS011;5770;44.504;11.346;2023-03-25T11:32:40;3.90;;;1.70;;
11427;SDS011;5770;44.504;11.346;2023-03-25T11:35:15;4.90;;;1.60;;
11427;SDS011;5770;44.504;11.346;2023-03-25T11:37:44;12.80;;;1.92;;
11427;SDS011;5770;44.504;11.346;2023-03-25T11:40:13;3.28;;;1.50;;
11427;SDS011;5770;44.504;11.346;2023-03-25T11:42:42;4.82;;;1.77;;
11427;SDS011;5770;44.504;11.346;2023-03-25T11:45:19;4.90;;;1.83;;
11427;SDS011;5770;44.504;11.346;2023-03-25T11:47:47;2.20;;;1.80;;
11427;SDS011;5770;44.504;11.346;2023-03-25T11:50:19;4.63;;;1.83;;
11427;SDS011;5770;44.504;11.346;2023-03-25T11:52:47;3.35;;;1.60;;
11427;SDS011;5770;44.504;11.346;2023-03-25T11:55:19;7.65;;;2.47;;
11427;SDS011;5770;44.504;11.346;2023-03-25T11:57:50;3.53;;;2.22;;
11427;SDS011;5770;44.504;11.346;2023-03-25T12:00:28;4.72;;;2.22;;
11427;SDS011;5770;44.504;11.346;2023-03-25T12:03:00;5.47;;;2.30;;
11427;SDS011;5770;44.504;11.346;2023-03-25T12:05:28;6.60;;;2.30;;
11427;SDS011;5770;44.504;11.346;2023-03-25T12:08:00;4.85;;;2.45;;
11427;SDS011;5770;44.504;11.346;2023-03-25T12:10:34;2.17;;;1.98;;
11427;SDS011;5770;44.504;11.346;2023-03-25T12:13:04;3.17;;;2.13;;
11427;SDS011;5770;44.504;11.346;2023-03-25T12:15:35;3.72;;;2.40;;
11427;SDS011;5770;44.504;11.346;2023-03-25T12:18:08;3.80;;;2.17;;
11427;SDS011;5770;44.504;11.346;2023-03-25T12:20:53;3.88;;;1.88;;
11427;SDS011;5770;44.504;11.346;2023-03-25T12:23:26;3.15;;;2.00;;
11427;SDS011;5770;44.504;11.346;2023-03-25T12:26:04;2.03;;;1.38;;
11427;SDS011;5770;44.504;11.346;2023-03-25T12:28:42;3.13;;;2.25;;
11427;SDS011;5770;44.504;11.346;2023-03-25T12:31:34;3.63;;;2.20;;
11427;SDS011;5770;44.504;11.346;2023-03-25T12:34:12;2.53;;;1.63;;
11427;SDS011;5770;44.504;11.346;2023-03-25T12:36:47;3.42;;;1.60;;
11427;SDS011;5770;44.504;11.346;2023-03-25T12:39:20;4.00;;;2.08;;
11427;SDS011;5770;44.504;11.346;2023-03-25T12:41:55;4.95;;;2.83;;
11427;SDS011;5770;44.504;11.346;2023-03-25T12:44:36;7.20;;;2.80;;
11427;SDS011;5770;44.504;11.346;2023-03-25T12:47:17;2.10;;;1.90;;
11427;SDS011;5770;44.504;11.346;2023-03-25T12:52:38;3.15;;;1.88;;
11427;SDS011;5770;44.504;11.346;2023-03-25T12:55:15;6.05;;;2.00;;
11427;SDS011;5770;44.504;11.346;2023-03-25T12:58:03;4.13;;;1.75;;
11427;SDS011;5770;44.504;11.346;2023-03-25T13:00:39;3.55;;;2.83;;
11427;SDS011;5770;44.504;11.346;2023-03-25T13:05:58;3.95;;;1.67;;
11427;SDS011;5770;44.504;11.346;2023-03-25T13:08:27;7.22;;;1.98;;
11427;SDS011;5770;44.504;11.346;2023-03-25T13:11:00;8.85;;;2.17;;
11427;SDS011;5770;44.504;11.346;2023-03-25T13:13:33;3.75;;;1.67;;
11427;SDS011;5770;44.504;11.346;2023-03-25T13:16:03;5.22;;;1.90;;
11427;SDS011;5770;44.504;11.346;2023-03-25T13:18:35;3.60;;;1.70;;
11427;SDS011;5770;44.504;11.346;2023-03-25T13:21:10;3.25;;;1.63;;
11427;SDS011;5770;44.504;11.346;2023-03-25T13:23:38;6.38;;;1.60;;
11427;SDS011;5770;44.504;11.346;2023-03-25T13:26:07;3.80;;;2.10;;
11427;SDS011;5770;44.504;11.346;2023-03-25T13:28:36;3.38;;;1.73;;
11427;SDS011;5770;44.504;11.346;2023-03-25T13:31:08;5.65;;;1.50;;
11427;SDS011;5770;44.504;11.346;2023-03-25T13:33:37;7.68;;;1.83;;
11427;SDS011;5770;44.504;11.346;2023-03-25T13:36:12;3.53;;;1.60;;
11427;SDS011;5770;44.504;11.346;2023-03-25T13:38:41;2.47;;;1.60;;
11427;SDS011;5770;44.504;11.346;2023-03-25T13:41:10;4.60;;;1.73;;
11427;SDS011;5770;44.504;11.346;2023-03-25T13:43:42;3.55;;;2.10;;
11427;SDS011;5770;44.504;11.346;2023-03-25T13:46:12;1.85;;;1.50;;
11427;SDS011;5770;44.504;11.346;2023-03-25T13:48:42;3.65;;;1.88;;
11427;SDS011;5770;44.504;11.346;2023-03-25T13:51:14;2.83;;;1.50;;
11427;SDS011;5770;44.504;11.346;2023-03-25T13:53:42;3.03;;;1.77;;
11427;SDS011;5770;44.504;11.346;2023-03-25T13:59:25;2.28;;;1.63;;
11427;SDS011;5770;44.504;11.346;2023-03-25T14:02:00;1.90;;;1.70;;
11427;SDS011;5770;44.504;11.346;2023-03-25T14:05:01;2.97;;;1.70;;
11427;SDS011;5770;44.504;11.346;2023-03-25T14:07:41;2.88;;;1.60;;
11427;SDS011;5770;44.504;11.346;2023-03-25T14:12:55;2.80;;;1.67;;
11427;SDS011;5770;44.504;11.346;2023-03-25T14:15:25;9.50;;;1.60;;
11427;SDS011;5770;44.504;11.346;2023-03-25T14:17:54;2.05;;;1.67;;
11427;SDS011;5770;44.504;11.346;2023-03-25T14:20:22;5.95;;;1.60;;
11427;SDS011;5770;44.504;11.346;2023-03-25T14:22:55;3.25;;;1.73;;
11427;SDS011;5770;44.504;11.346;2023-03-25T14:25:28;2.63;;;1.65;;
11427;SDS011;5770;44.504;11.346;2023-03-25T14:27:58;1.73;;;1.58;;
11427;SDS011;5770;44.504;11.346;2023-03-25T14:30:27;4.15;;;1.83;;
11427;SDS011;5770;44.504;11.346;2023-03-25T14:32:55;2.08;;;1.50;;
11427;SDS011;5770;44.504;11.346;2023-03-25T14:38:24;3.00;;;1.60;;
11427;SDS011;5770;44.504;11.346;2023-03-25T14:44:28;8.63;;;2.53;;
11427;SDS011;5770;44.504;11.346;2023-03-25T14:47:00;6.30;;;1.90;;
11427;SDS011;5770;44.504;11.346;2023-03-25T14:52:19;3.10;;;1.60;;
11427;SDS011;5770;44.504;11.346;2023-03-25T14:54:50;2.55;;;1.70;;
11427;SDS011;5770;44.504;11.346;2023-03-25T14:57:20;3.53;;;1.60;;
11427;SDS011;5770;44.504;11.346;2023-03-25T14:59:50;8.93;;;2.00;;
11427;SDS011;5770;44.504;11.346;2023-03-25T15:02:20;4.57;;;1.50;;
11427;SDS011;5770;44.504;11.346;2023-03-25T15:04:52;4.07;;;1.90;;
11427;SDS011;5770;44.504;11.346;2023-03-25T15:10:05;4.90;;;1.83;;
11427;SDS011;5770;44.504;11.346;2023-03-25T15:12:35;2.65;;;2.20;;
11427;SDS011;5770;44.504;11.346;2023-03-25T15:15:06;3.90;;;1.92;;
11427;SDS011;5770;44.504;11.346;2023-03-25T15:17:50;6.88;;;4.18;;
11427;SDS011;5770;44.504;11.346;2023-03-25T15:20:30;5.68;;;3.65;;
11427;SDS011;5770;44.504;11.346;2023-03-25T15:25:47;13.05;;;7.20;;
11427;SDS011;5770;44.504;11.346;2023-03-25T15:28:17;7.53;;;4.45;;
11427;SDS011;5770;44.504;11.346;2023-03-25T15:33:48;5.25;;;3.15;;
11427;SDS011;5770;44.504;11.346;2023-03-25T15:36:26;9.00;;;3.83;;
11427;SDS011;5770;44.504;11.346;2023-03-25T15:45:06;1.67;;;1.40;;
11427;SDS011;5770;44.504;11.346;2023-03-25T15:48:02;2.15;;;1.60;;
11427;SDS011;5770;44.504;11.346;2023-03-25T15:51:12;5.70;;;1.70;;